createdAt,value
2018-05-12T00:00:24.459Z,68.78
2018-05-12T00:02:52.935Z,69.21
2018-05-12T00:05:21.340Z,69.76
2018-05-12T00:07:49.811Z,69.99
2018-05-12T00:10:18.296Z,70.11
2018-05-12T00:12:46.746Z,70.18
2018-05-12T00:15:15.164Z,69.94
2018-05-12T00:17:43.791Z,70.14
2018-05-12T00:20:12.213Z,70.26
2018-05-12T00:22:40.611Z,70.60
2018-05-12T00:25:09.007Z,70.76
2018-05-12T00:27:37.440Z,71.08
2018-05-12T00:30:06.198Z,71.19
2018-05-12T00:32:35.583Z,70.99
2018-05-12T00:35:03.992Z,70.98
2018-05-12T00:37:32.415Z,70.95
2018-05-12T00:40:00.831Z,70.85
2018-05-12T00:42:29.377Z,70.69
2018-05-12T00:44:57.784Z,70.89
2018-05-12T00:47:26.264Z,71.09
2018-05-12T00:49:54.707Z,70.81
2018-05-12T00:52:23.121Z,70.40
2018-05-12T00:54:51.560Z,70.69
2018-05-12T00:57:19.983Z,70.72
2018-05-12T00:59:48.396Z,71.45
2018-05-12T01:02:16.804Z,71.90
2018-05-12T01:04:47.335Z,71.95
2018-05-12T01:07:15.751Z,72.31
2018-05-12T01:09:44.183Z,72.18
2018-05-12T01:12:12.620Z,72.76
2018-05-12T01:14:41.055Z,72.67
2018-05-12T01:17:11.654Z,72.47
2018-05-12T01:19:42.176Z,72.82
2018-05-12T01:22:10.603Z,72.75
2018-05-12T01:24:39.024Z,72.68
2018-05-12T01:27:07.480Z,72.55
2018-05-12T01:29:35.898Z,72.51
2018-05-12T01:32:04.338Z,72.67
2018-05-12T01:34:33.147Z,72.81
2018-05-12T01:37:03.620Z,72.66
2018-05-12T01:39:32.077Z,72.75
2018-05-12T01:42:00.515Z,73.19
2018-05-12T01:44:28.935Z,73.15
2018-05-12T01:46:57.386Z,73.10
2018-05-12T01:49:25.834Z,72.65
2018-05-12T01:51:54.262Z,72.82
2018-05-12T01:54:24.743Z,72.03
2018-05-12T01:56:53.149Z,71.88
2018-05-12T01:59:21.577Z,71.42
2018-05-12T02:01:49.983Z,71.55
2018-05-12T02:04:18.388Z,71.79
2018-05-12T02:06:46.836Z,71.79
2018-05-12T02:09:15.258Z,71.95
2018-05-12T02:11:43.909Z,72.25
2018-05-12T02:14:12.316Z,72.22
2018-05-12T02:16:40.732Z,72.33
2018-05-12T02:19:09.151Z,72.34
2018-05-12T02:21:37.585Z,72.17
2018-05-12T02:24:06.966Z,72.30
2018-05-12T02:26:35.339Z,72.28
2018-05-12T02:29:03.755Z,72.03
2018-05-12T02:31:32.186Z,71.81
2018-05-12T02:34:00.598Z,71.78
2018-05-12T02:36:28.989Z,71.50
2018-05-12T02:38:57.376Z,71.81
2018-05-12T02:41:25.765Z,71.81
2018-05-12T02:43:54.199Z,72.31
2018-05-12T02:46:22.633Z,72.16
2018-05-12T02:48:51.103Z,72.56
2018-05-12T02:51:19.506Z,72.94
2018-05-12T02:53:50.479Z,72.77
2018-05-12T02:56:20.929Z,71.78
2018-05-12T02:58:51.483Z,71.84
2018-05-12T03:01:19.891Z,72.58
2018-05-12T03:03:48.295Z,73.62
2018-05-12T03:06:16.721Z,74.14
2018-05-12T03:08:45.133Z,74.53
2018-05-12T03:11:13.931Z,75.22
2018-05-12T03:13:42.376Z,75.33
2018-05-12T03:16:10.783Z,76.16
2018-05-12T03:18:39.210Z,76.57
2018-05-12T03:21:08.067Z,76.56
2018-05-12T03:23:38.063Z,75.96
2018-05-12T03:26:06.478Z,75.31
2018-05-12T03:28:34.937Z,75.41
2018-05-12T03:31:03.358Z,75.37
2018-05-12T03:33:31.771Z,75.58
2018-05-12T03:36:00.244Z,75.63
2018-05-12T03:38:30.667Z,76.23
2018-05-12T03:40:59.092Z,75.60
2018-05-12T03:43:27.535Z,75.08
2018-05-12T03:45:56.360Z,75.04
2018-05-12T03:48:24.786Z,75.79
2018-05-12T03:50:55.358Z,75.99
2018-05-12T03:53:23.731Z,75.87
2018-05-12T03:55:52.732Z,75.73
2018-05-12T03:58:21.144Z,75.92
2018-05-12T04:00:49.566Z,76.03
2018-05-12T04:03:18.268Z,76.26
2018-05-12T04:05:52.882Z,76.74
2018-05-12T04:08:29.509Z,76.18
2018-05-12T04:11:03.980Z,75.74
2018-05-12T04:13:32.430Z,76.13
2018-05-12T04:16:00.833Z,76.01
2018-05-12T04:18:30.092Z,75.27
2018-05-12T04:20:58.633Z,75.03
2018-05-12T04:23:27.010Z,75.54
2018-05-12T04:25:55.899Z,75.23
2018-05-12T04:28:24.302Z,75.39
2018-05-12T04:30:52.730Z,75.46
2018-05-12T04:33:23.259Z,75.79
2018-05-12T04:35:51.663Z,75.39
2018-05-12T04:38:20.061Z,74.58
2018-05-12T04:40:48.519Z,74.45
2018-05-12T04:43:16.952Z,75.08
2018-05-12T04:45:47.658Z,75.76
2018-05-12T04:48:16.413Z,76.27
2018-05-12T04:50:44.809Z,76.39
2018-05-12T04:53:13.217Z,76.06
2018-05-12T04:55:43.780Z,75.87
2018-05-12T04:58:13.943Z,75.95
2018-05-12T05:00:42.804Z,76.60
2018-05-12T05:03:11.244Z,75.77
2018-05-12T05:05:39.647Z,75.85
2018-05-12T05:08:08.167Z,75.79
2018-05-12T05:10:36.528Z,74.88
2018-05-12T05:13:04.983Z,75.23
2018-05-12T05:15:33.402Z,75.01
2018-05-12T05:18:03.927Z,74.77
2018-05-12T05:20:32.348Z,73.85
2018-05-12T05:23:00.769Z,73.22
2018-05-12T05:25:29.236Z,72.87
2018-05-12T05:27:57.691Z,72.15
2018-05-12T05:30:26.047Z,70.67
2018-05-12T05:32:54.487Z,69.47
2018-05-12T05:35:22.887Z,68.75
2018-05-12T05:37:51.650Z,68.24
2018-05-12T05:40:20.043Z,67.85
2018-05-12T05:42:48.478Z,66.38
2018-05-12T05:45:16.938Z,65.78
2018-05-12T05:47:45.327Z,65.41
2018-05-12T05:50:14.142Z,64.47
2018-05-12T05:52:42.555Z,63.80
2018-05-12T05:55:10.963Z,63.21
2018-05-12T05:57:39.417Z,61.42
2018-05-12T06:00:07.825Z,61.74
2018-05-12T06:02:36.299Z,61.03
2018-05-12T06:05:04.712Z,60.86
2018-05-12T06:07:33.131Z,59.58
2018-05-12T06:10:02.587Z,59.63
2018-05-12T06:12:31.083Z,58.40
2018-05-12T06:14:59.548Z,57.57
2018-05-12T06:17:27.967Z,57.82
2018-05-12T06:19:56.542Z,56.39
2018-05-12T06:22:24.932Z,55.94
2018-05-12T06:24:53.363Z,55.34
2018-05-12T06:27:22.944Z,54.78
2018-05-12T06:29:51.386Z,54.55
2018-05-12T06:32:19.816Z,53.48
2018-05-12T06:34:49.160Z,52.09
2018-05-12T06:37:17.636Z,52.57
2018-05-12T06:39:46.110Z,50.71
2018-05-12T06:42:14.894Z,50.35
2018-05-12T06:44:43.275Z,50.58
2018-05-12T06:47:11.984Z,51.44
2018-05-12T06:49:40.415Z,49.28
2018-05-12T06:52:08.828Z,48.59
2018-05-12T06:54:38.219Z,46.78
2018-05-12T06:57:06.643Z,46.72
2018-05-12T06:59:35.094Z,45.45
2018-05-12T07:02:03.903Z,44.07
2018-05-12T07:04:32.346Z,42.95
2018-05-12T07:07:00.833Z,41.82
2018-05-12T07:09:29.284Z,40.81
2018-05-12T07:11:57.702Z,40.81
2018-05-12T07:14:26.140Z,39.83
2018-05-12T07:16:55.563Z,39.64
2018-05-12T07:19:24.982Z,38.64
2018-05-12T07:21:53.360Z,38.59
2018-05-12T07:24:21.822Z,38.50
2018-05-12T07:26:50.272Z,36.22
2018-05-12T07:29:18.679Z,35.90
2018-05-12T07:31:47.056Z,36.10
2018-05-12T07:34:15.501Z,35.33
2018-05-12T07:36:43.896Z,34.49
2018-05-12T07:39:12.316Z,33.70
2018-05-12T07:41:40.771Z,33.14
2018-05-12T07:44:09.232Z,32.61
2018-05-12T07:46:37.707Z,32.90
2018-05-12T07:49:07.108Z,32.98
2018-05-12T07:51:35.638Z,32.57
2018-05-12T07:54:04.899Z,31.80
2018-05-12T07:56:33.291Z,32.18
2018-05-12T07:59:01.797Z,32.09
2018-05-12T08:01:30.208Z,31.47
2018-05-12T08:04:00.547Z,30.62
2018-05-12T08:06:28.923Z,30.40
2018-05-12T08:08:57.356Z,30.44
2018-05-12T08:11:25.812Z,30.16
2018-05-12T08:13:54.205Z,29.66
2018-05-12T08:16:22.614Z,29.27
2018-05-12T08:18:51.225Z,29.44
2018-05-12T08:21:19.667Z,29.10
2018-05-12T08:23:48.023Z,27.95
2018-05-12T08:26:16.735Z,28.03
2018-05-12T08:28:45.101Z,27.13
2018-05-12T08:31:14.525Z,28.20
2018-05-12T08:33:43.003Z,26.82
2018-05-12T08:36:12.223Z,26.56
2018-05-12T08:38:41.004Z,27.48
2018-05-12T08:41:10.327Z,27.55
2018-05-12T08:43:38.738Z,26.04
2018-05-12T08:46:07.213Z,25.86
2018-05-12T08:48:35.975Z,26.76
2018-05-12T08:51:04.460Z,28.21
2018-05-12T08:53:32.895Z,27.38
2018-05-12T08:56:01.692Z,27.62
2018-05-12T08:58:30.151Z,27.59
2018-05-12T09:00:59.885Z,26.55
2018-05-12T09:03:28.267Z,25.05
2018-05-12T09:05:56.723Z,24.67
2018-05-12T09:08:25.203Z,23.68
2018-05-12T09:10:53.596Z,22.54
2018-05-12T09:13:22.076Z,23.55
2018-05-12T09:15:50.498Z,22.15
2018-05-12T09:18:18.899Z,21.77
2018-05-12T09:20:47.354Z,21.68
2018-05-12T09:23:15.795Z,23.43
2018-05-12T09:25:45.158Z,24.24
2018-05-12T09:28:13.967Z,23.84
2018-05-12T09:30:42.323Z,23.92
2018-05-12T09:33:10.767Z,22.54
2018-05-12T09:35:39.746Z,22.76
2018-05-12T09:38:08.152Z,19.56
2018-05-12T09:40:36.596Z,20.12
2018-05-12T09:43:05.037Z,21.79
2018-05-12T09:45:33.508Z,21.81
2018-05-12T09:48:01.911Z,22.69
2018-05-12T09:50:30.418Z,22.52
2018-05-12T09:53:00.421Z,22.75
2018-05-12T09:55:30.381Z,24.82
2018-05-12T09:57:58.819Z,24.04
2018-05-12T10:00:27.280Z,23.81
2018-05-12T10:02:57.457Z,22.50
2018-05-12T10:05:29.801Z,23.67
2018-05-12T10:07:58.316Z,23.09
2018-05-12T10:10:26.714Z,23.95
2018-05-12T10:12:55.222Z,22.99
2018-05-12T10:15:23.731Z,21.99
2018-05-12T10:17:53.871Z,21.16
2018-05-12T10:20:22.295Z,21.36
2018-05-12T10:22:50.858Z,22.06
2018-05-12T10:25:20.830Z,22.27
2018-05-12T10:27:49.263Z,22.90
2018-05-12T10:30:19.604Z,25.29
2018-05-12T10:32:48.031Z,25.98
2018-05-12T10:35:17.900Z,25.45
2018-05-12T10:37:46.584Z,24.52
2018-05-12T10:40:15.010Z,25.22
2018-05-12T10:42:43.428Z,23.19
2018-05-12T10:45:11.864Z,24.36
2018-05-12T10:47:43.457Z,24.60
2018-05-12T10:50:11.912Z,25.34
2018-05-12T10:52:41.882Z,25.89
2018-05-12T10:55:11.796Z,25.15
2018-05-12T10:57:41.753Z,25.74
2018-05-12T11:00:10.146Z,25.22
2018-05-12T11:02:40.215Z,24.07
2018-05-12T11:05:12.177Z,24.89
2018-05-12T11:07:40.639Z,25.02
2018-05-12T11:10:09.092Z,24.12
2018-05-12T11:12:38.978Z,25.27
2018-05-12T11:15:07.421Z,25.03
2018-05-12T11:17:37.424Z,24.44
2018-05-12T11:20:05.848Z,23.55
2018-05-12T11:22:34.295Z,24.24
2018-05-12T11:25:02.764Z,24.71
2018-05-12T11:27:31.237Z,26.41
2018-05-12T11:29:59.693Z,24.03
2018-05-12T11:32:28.128Z,25.83
2018-05-12T11:34:58.669Z,24.97
2018-05-12T11:37:27.121Z,24.33
2018-05-12T11:39:57.253Z,24.78
2018-05-12T11:42:27.041Z,25.26
2018-05-12T11:44:55.508Z,23.83
2018-05-12T11:47:24.000Z,24.87
2018-05-12T11:49:52.415Z,25.42
2018-05-12T11:52:22.850Z,26.49
2018-05-12T11:54:51.302Z,25.39
2018-05-12T11:57:23.722Z,25.63
2018-05-12T11:59:52.179Z,25.21
2018-05-12T12:02:20.591Z,26.77
2018-05-12T12:04:49.036Z,26.87
2018-05-12T12:07:17.536Z,26.91
2018-05-12T12:09:45.960Z,27.02
2018-05-12T12:12:14.685Z,27.73
2018-05-12T12:14:43.116Z,26.84
2018-05-12T12:17:13.006Z,26.34
2018-05-12T12:19:41.447Z,26.40
2018-05-12T12:22:09.862Z,27.59
2018-05-12T12:24:38.329Z,25.93
2018-05-12T12:27:08.365Z,27.10
2018-05-12T12:29:36.787Z,26.10
2018-05-12T12:32:06.662Z,26.94
2018-05-12T12:34:35.103Z,27.81
2018-05-12T12:37:03.580Z,28.37
2018-05-12T12:39:32.003Z,28.56
2018-05-12T12:42:00.708Z,28.79
2018-05-12T12:44:29.116Z,27.59
2018-05-12T12:46:57.543Z,28.50
2018-05-12T12:49:25.988Z,27.11
2018-05-12T12:51:54.435Z,27.09
2018-05-12T12:54:22.864Z,27.19
2018-05-12T12:56:51.276Z,25.86
2018-05-12T12:59:20.089Z,27.34
2018-05-12T13:01:48.544Z,26.98
2018-05-12T13:04:16.982Z,26.99
2018-05-12T13:06:45.452Z,26.92
2018-05-12T13:09:17.578Z,27.62
2018-05-12T13:11:46.088Z,27.42
2018-05-12T13:14:14.498Z,27.30
2018-05-12T13:16:43.089Z,26.99
2018-05-12T13:19:13.058Z,27.32
2018-05-12T13:21:43.780Z,27.33
2018-05-12T13:24:12.207Z,27.43
2018-05-12T13:26:40.623Z,27.54
2018-05-12T13:29:09.059Z,28.25
2018-05-12T13:31:39.028Z,28.92
2018-05-12T13:34:09.184Z,27.65
2018-05-12T13:36:37.624Z,28.31
2018-05-12T13:39:06.047Z,27.48
2018-05-12T13:41:34.502Z,28.52
2018-05-12T13:44:02.924Z,28.39
2018-05-12T13:46:31.379Z,28.41
2018-05-12T13:48:59.831Z,27.40
2018-05-12T13:51:28.621Z,27.12
2018-05-12T13:53:57.047Z,27.73
2018-05-12T13:56:25.492Z,26.37
2018-05-12T13:58:53.967Z,26.68
2018-05-12T14:01:22.379Z,24.19
2018-05-12T14:03:50.813Z,25.46
2018-05-12T14:06:19.237Z,26.78
2018-05-12T14:08:47.646Z,27.22
2018-05-12T14:11:16.123Z,28.41
2018-05-12T14:13:44.619Z,28.03
2018-05-12T14:16:13.114Z,28.11
2018-05-12T14:18:43.022Z,28.07
2018-05-12T14:21:13.043Z,27.89
2018-05-12T14:23:41.836Z,28.48
2018-05-12T14:26:10.272Z,29.37
2018-05-12T14:28:38.682Z,28.87
2018-05-12T14:31:07.192Z,29.25
2018-05-12T14:33:35.604Z,28.57
2018-05-12T14:36:08.123Z,29.80
2018-05-12T14:38:40.194Z,29.51
2018-05-12T14:41:08.615Z,29.68
2018-05-12T14:43:38.632Z,30.18
2018-05-12T14:46:07.091Z,30.40
2018-05-12T14:48:35.551Z,29.79
2018-05-12T14:51:03.999Z,29.02
2018-05-12T14:53:32.408Z,29.23
2018-05-12T14:56:01.148Z,29.29
2018-05-12T14:58:31.659Z,28.44
2018-05-12T15:01:00.142Z,29.41
2018-05-12T15:03:32.371Z,29.84
2018-05-12T15:06:00.780Z,30.22
2018-05-12T15:08:29.201Z,30.97
2018-05-12T15:10:57.636Z,31.47
2018-05-12T15:13:26.201Z,31.34
2018-05-12T15:15:56.748Z,31.39
2018-05-12T15:18:27.156Z,30.81
2018-05-12T15:20:55.595Z,31.05
2018-05-12T15:23:24.012Z,31.16
2018-05-12T15:25:52.782Z,31.48
2018-05-12T15:28:21.247Z,31.12
2018-05-12T15:30:52.412Z,30.52
2018-05-12T15:33:20.854Z,30.08
2018-05-12T15:35:51.348Z,30.58
2018-05-12T15:38:19.730Z,29.55
2018-05-12T15:40:48.189Z,30.55
2018-05-12T15:43:15.709Z,29.16
2018-05-12T15:45:43.575Z,29.70
2018-05-12T15:48:10.929Z,29.57
2018-05-12T15:50:38.281Z,29.56
2018-05-12T15:53:05.716Z,29.72
2018-05-12T15:55:33.044Z,29.99
2018-05-12T15:58:01.828Z,30.66
2018-05-12T16:00:29.984Z,30.90
2018-05-12T16:02:57.363Z,31.36
2018-05-12T16:05:24.705Z,31.14
2018-05-12T16:07:52.048Z,30.44
2018-05-12T16:10:19.254Z,30.14
2018-05-12T16:12:47.643Z,30.56
2018-05-12T16:15:14.994Z,30.53
2018-05-12T16:17:43.385Z,30.60
2018-05-12T16:20:11.065Z,31.09
2018-05-12T16:22:39.507Z,31.81
2018-05-12T16:25:06.854Z,31.71
2018-05-12T16:27:35.244Z,31.96
2018-05-12T16:30:03.673Z,32.48
2018-05-12T16:32:31.097Z,32.75
2018-05-12T16:34:59.492Z,33.46
2018-05-12T16:37:30.332Z,33.44
2018-05-12T16:39:58.738Z,33.64
2018-05-12T16:42:27.172Z,33.50
2018-05-12T16:44:55.625Z,33.97
2018-05-12T16:47:22.981Z,34.18
2018-05-12T16:49:51.408Z,33.82
2018-05-12T16:52:19.933Z,33.80
2018-05-12T16:54:48.367Z,33.58
2018-05-12T16:57:17.506Z,33.83
2018-05-12T16:59:45.955Z,33.68
2018-05-12T17:02:13.322Z,34.27
2018-05-12T17:04:43.541Z,34.80
2018-05-12T17:07:15.592Z,34.61
2018-05-12T17:09:44.043Z,35.01
2018-05-12T17:12:12.556Z,35.23
2018-05-12T17:14:41.023Z,35.86
2018-05-12T17:17:09.450Z,35.34
2018-05-12T17:19:38.088Z,35.37
2018-05-12T17:22:06.503Z,35.73
2018-05-12T17:24:34.907Z,35.88
2018-05-12T17:27:03.367Z,36.22
2018-05-12T17:29:31.799Z,35.58
2018-05-12T17:32:00.251Z,36.39
2018-05-12T17:34:28.656Z,36.36
2018-05-12T17:36:58.192Z,37.37
2018-05-12T17:39:26.653Z,37.15
2018-05-12T17:41:55.087Z,37.33
2018-05-12T17:44:24.647Z,37.17
2018-05-12T17:46:54.299Z,36.95
2018-05-12T17:49:22.744Z,37.18
2018-05-12T17:51:51.186Z,37.38
2018-05-12T17:54:19.651Z,37.67
2018-05-12T17:56:48.181Z,37.59
2018-05-12T17:59:18.144Z,37.41
2018-05-12T18:01:47.982Z,37.82
2018-05-12T18:04:16.414Z,37.71
2018-05-12T18:06:46.427Z,37.94
2018-05-12T18:09:15.076Z,38.36
2018-05-12T18:11:43.450Z,38.51
2018-05-12T18:14:11.940Z,38.52
2018-05-12T18:16:40.352Z,38.95
2018-05-12T18:19:08.769Z,38.94
2018-05-12T18:21:37.212Z,39.29
2018-05-12T18:24:07.154Z,39.37
2018-05-12T18:26:35.632Z,39.53
2018-05-12T18:29:06.188Z,39.76
2018-05-12T18:31:34.610Z,39.88
2018-05-12T18:34:03.068Z,40.01
2018-05-12T18:36:31.863Z,40.18
2018-05-12T18:39:00.358Z,40.31
2018-05-12T18:41:30.835Z,40.34
2018-05-12T18:44:00.593Z,40.23
2018-05-12T18:46:31.239Z,40.16
2018-05-12T18:48:59.712Z,40.35
2018-05-12T18:51:30.236Z,40.08
2018-05-12T18:53:58.631Z,40.00
2018-05-12T18:56:27.052Z,40.38
2018-05-12T18:58:55.436Z,40.19
2018-05-12T19:01:23.804Z,40.58
2018-05-12T19:03:53.723Z,43.39
2018-05-12T19:06:22.156Z,45.14
2018-05-12T19:08:50.486Z,45.39
2018-05-12T19:11:18.915Z,45.61
2018-05-12T19:13:47.289Z,45.94
2018-05-12T19:16:15.641Z,46.01
2018-05-12T19:18:44.393Z,47.05
2018-05-12T19:21:12.776Z,47.59
2018-05-12T19:23:41.171Z,47.15
2018-05-12T19:26:09.591Z,47.26
2018-05-12T19:28:38.026Z,47.11
2018-05-12T19:31:08.955Z,47.79
2018-05-12T19:33:37.331Z,47.77
2018-05-12T19:36:05.719Z,47.58
2018-05-12T19:38:34.179Z,47.25
2018-05-12T19:41:02.548Z,47.21
2018-05-12T19:43:30.903Z,47.20
2018-05-12T19:46:01.665Z,47.44
2018-05-12T19:48:30.047Z,47.64
2018-05-12T19:50:58.423Z,48.26
2018-05-12T19:53:26.804Z,47.97
2018-05-12T19:55:55.163Z,48.21
2018-05-12T19:58:23.887Z,48.37
2018-05-12T20:00:52.295Z,48.98
2018-05-12T20:03:20.614Z,49.15
2018-05-12T20:05:49.311Z,48.82
2018-05-12T20:08:17.680Z,48.97
2018-05-12T20:10:46.052Z,49.23
2018-05-12T20:13:14.489Z,48.88
2018-05-12T20:15:42.887Z,48.83
2018-05-12T20:18:12.235Z,49.07
2018-05-12T20:20:40.620Z,48.96
2018-05-12T20:23:08.901Z,48.46
2018-05-12T20:25:37.365Z,48.76
2018-05-12T20:28:05.664Z,48.54
2018-05-12T20:30:34.428Z,48.76
2018-05-12T20:33:02.769Z,49.12
2018-05-12T20:35:31.184Z,49.26
2018-05-12T20:37:59.595Z,49.34
2018-05-12T20:40:28.037Z,49.47
2018-05-12T20:42:56.495Z,48.28
2018-05-12T20:45:24.972Z,48.71
2018-05-12T20:47:55.612Z,48.84
2018-05-12T20:50:24.001Z,49.41
2018-05-12T20:52:52.400Z,49.68
2018-05-12T20:55:20.767Z,49.22
2018-05-12T20:57:51.254Z,49.47
2018-05-12T21:00:19.606Z,49.81
2018-05-12T21:02:48.368Z,50.21
2018-05-12T21:05:16.741Z,50.64
2018-05-12T21:07:45.100Z,50.54
2018-05-12T21:10:13.517Z,50.93
2018-05-12T21:12:41.897Z,51.22
2018-05-12T21:15:10.640Z,51.09
2018-05-12T21:17:39.056Z,50.84
2018-05-12T21:20:07.435Z,50.16
2018-05-12T21:22:36.180Z,49.52
2018-05-12T21:25:04.636Z,50.26
2018-05-12T21:27:33.007Z,50.70
2018-05-12T21:30:01.477Z,50.93
2018-05-12T21:32:29.851Z,51.07
2018-05-12T21:34:58.709Z,51.06
2018-05-12T21:37:27.223Z,51.31
2018-05-12T21:39:57.105Z,51.10
2018-05-12T21:42:27.028Z,51.69
2018-05-12T21:44:55.411Z,51.59
2018-05-12T21:47:25.277Z,52.11
2018-05-12T21:49:53.689Z,52.35
2018-05-12T21:52:22.052Z,52.65
2018-05-12T21:54:50.439Z,52.79
2018-05-12T21:57:20.614Z,52.93
2018-05-12T21:59:48.961Z,53.66
2018-05-12T22:02:17.332Z,54.06
2018-05-12T22:04:45.715Z,54.46
2018-05-12T22:07:14.111Z,55.02
2018-05-12T22:09:42.584Z,55.37
2018-05-12T22:12:10.932Z,55.82
2018-05-12T22:14:39.311Z,55.68
2018-05-12T22:17:07.673Z,56.15
2018-05-12T22:19:36.145Z,56.64
2018-05-12T22:22:04.558Z,56.53
2018-05-12T22:24:32.934Z,56.74
2018-05-12T22:27:01.543Z,57.16
2018-05-12T22:29:31.464Z,57.13
2018-05-12T22:31:59.879Z,57.24
2018-05-12T22:34:28.575Z,57.73
2018-05-12T22:37:01.176Z,58.02
2018-05-12T22:39:31.001Z,58.34
2018-05-12T22:42:00.708Z,58.68
2018-05-12T22:44:29.065Z,58.43
2018-05-12T22:46:57.419Z,58.80
2018-05-12T22:49:25.839Z,58.75
2018-05-12T22:51:55.591Z,58.63
2018-05-12T22:54:23.931Z,58.97
2018-05-12T22:56:52.359Z,59.53
2018-05-12T22:59:22.705Z,59.68
2018-05-12T23:01:51.151Z,59.74
2018-05-12T23:04:19.576Z,60.31
2018-05-12T23:06:48.024Z,60.15
2018-05-12T23:09:18.037Z,59.66
2018-05-12T23:11:49.880Z,58.99
2018-05-12T23:14:23.766Z,60.32
2018-05-12T23:16:52.204Z,60.28
2018-05-12T23:19:20.684Z,61.68
2018-05-12T23:21:49.059Z,61.31
2018-05-12T23:24:17.532Z,62.93
2018-05-12T23:26:45.953Z,63.83
2018-05-12T23:29:14.452Z,64.67
2018-05-12T23:31:42.846Z,63.83
2018-05-12T23:34:11.285Z,64.16
2018-05-12T23:36:39.696Z,64.18
2018-05-12T23:39:08.103Z,64.52
2018-05-12T23:41:36.479Z,65.19
2018-05-12T23:44:06.804Z,65.21
2018-05-12T23:46:35.240Z,65.12
2018-05-12T23:49:05.694Z,65.34
2018-05-12T23:51:37.740Z,65.38
2018-05-12T23:54:06.479Z,65.38
2018-05-12T23:56:34.843Z,65.98
2018-05-12T23:59:05.367Z,65.80
